Marsa Alam, Ägypten

11:51 PM EET am 28. April 2017 (GMT +0200)
Marsa Alam International | | Change Station

Höhe 253 ft 25.55 °N, 34.58 °E | Updated 51 minutes ago

Heiter
Heiter
79 °F
gefühlte 79 °F
N
4
Wind Wechselnd Wind aus Süd-Südost

Heute
Max. -- | schwach -- °F
--% Regenrisiko
Gestern
Max. -- | schwach -- °F
Precip. -- inch
Druck 29.86 inch
Sichtweite -9999.0 Meilen
Wolken
Taupunkt 45 °F
Feuchtigkeit 30%
Regen 0.00 inch
Schneehöhe Nicht verfügbar..
5:07 AM 6:11 PM
Erstes Viertel, 9% visible
METAR HEMA 282100Z 16003KT CAVOK 26/07 Q1011 NOSIG
Druck 29.86 inch
Sichtweite -9999.0 Meilen
Wolken
Taupunkt 45 °F
Feuchtigkeit 30%
Regen 0.00 inch
Schneehöhe Nicht verfügbar..
5:07 AM 6:11 PM
Erstes Viertel, 9% visible
METAR HEMA 282100Z 16003KT CAVOK 26/07 Q1011 NOSIG

Get Severe Weather Alerts

Thanks for signing up!

Be on the lookout for a verification email in your inbox.

You'll start receiving the daily forecast at 8 AM.

×

10-Day Weather Forecast

No radar image for this location.
×

Almanac

Astronomie

Apr. 28, 2017 Aufgang Untergang
Genaue Zeit
Bürgerliche Dämmerung
Nautische Dämmerung
Astronomische Dämmerung
Mond
Länge des sichtbaren Lichts
Tageslänge
Tomorrow will be .
, % of the Moon is Illuminated

Heutige Rekorde

Country Highs Country Lows

Community

WunderPhotos

WunderBlog® & News

Nearby

Luftqualität

  Luftqualität LQ Index Schadstoff
Not available.

Schneehöhe

Station Depth Höhe

Erdbebenaktivität

Stadt Distance Mag. Time & Date
Minimum magnitude displayed is 2.5.

küstennahe Wassertemperaturen

Ort Temperatur

Stations

Wetterstationen in der Umgebung

Stationsstandort Temp. Windchill Taupunkt Feuchtigkeit Wind Precip. Höhe Aktualisiert Art